Flight Track Log - Related Links

Times and Time Zones

All times are in EST time to prevent confusion due to time zone crossing. See the N400PU flight status page for this flight to view local times or setup timezone preferences in your user account.

Time Position Orientation Groundspeed Altitude Reporting Facility
EST Latitude Longitude Course Direction KTS MPH feet Rate Location/Type
Mon 10:34:00 AM 40.4097 -86.9142 90° East 145 167 1,900  Level Chicago Center
Mon 10:34:43 AM 40.4094 -86.8622 90° East 187 215 4,600 3,000 Climbing Chicago Center
Mon 10:34:56 AM 40.4114 -86.8583 57° Northeast 200 230 4,700 2,560 Climbing Chicago Center
Mon 10:35:58 AM 40.4803 -86.8517 North 260 299 7,800 2,613 Climbing Chicago Center
Mon 10:37:00 AM 40.5492 -86.9014 331° Northwest 280 322 10,100 2,032 Climbing Chicago Center
Mon 10:38:02 AM 40.6294 -86.8906 North 321 369 12,000 1,403 Climbing Chicago Center
Mon 10:39:04 AM 40.7078 -86.8053 40° Northeast 334 384 13,000 484 Climbing Chicago Center
Mon 10:40:06 AM 40.7856 -86.7217 39° Northeast 381 438 13,000  Level Chicago Center
Mon 10:41:08 AM 40.8719 -86.6281 39° Northeast 398 458 13,000 -435 Level Chicago Center
Mon 10:42:10 AM 40.9958 -86.5878 14° North 406 467 12,100 -968 Descending Chicago Center
Mon 10:43:12 AM 41.1061 -86.5950 357° North 399 459 11,000 -581 Descending Chicago Center
Mon 10:44:14 AM 41.2136 -86.6044 356° North 390 449 10,900 -484 Descending Chicago Center
Mon 10:45:16 AM 41.2769 -86.6994 312° West 350 403 10,000 -435 Descending Chicago Center
Mon 10:46:18 AM 41.3283 -86.7994 304° West 325 374 10,000  Level Chicago Center
Mon 10:47:20 AM 41.3783 -86.8936 305° West 315 362 10,000 -387 Level Chicago Center
Mon 10:48:22 AM 41.4242 -86.9800 305° West 296 341 9,200 -1,306 Descending Chicago Center
Mon 10:49:24 AM 41.4753 -87.0803 304° West 279 321 7,300 -1,548 Descending Chicago Center
Mon 10:50:26 AM 41.5194 -87.1611 306° West 275 316 6,000 -677 Descending Chicago Center
Mon 10:51:28 AM 41.5800 -87.2250 322° Northwest 277 319 5,900 -484 Descending Chicago Center
Mon 10:52:30 AM 41.6036 -87.3172 289° West 266 306 5,000 -968 Descending Chicago Center
Mon 10:53:32 AM 41.6228 -87.4064 286° West 258 297 3,900 -532 Descending Chicago Center
Mon 10:54:34 AM 41.6442 -87.4889 289° West 213 245 3,900 97 Level Chicago Center
Mon 10:55:36 AM 41.6594 -87.5522 288° West 191 220 4,100 -145 Climbing Chicago Center
Mon 10:56:38 AM 41.6875 -87.6089 304° West 187 215 3,600 -726 Descending Chicago Center
Mon 10:57:40 AM 41.7219 -87.6614 311° West 190 219 2,600 -919 Descending Chicago Center
Mon 10:58:42 AM 41.7581 -87.6969 324° Northwest 179 206 1,700 -581 Descending Chicago Center
Mon 10:59:44 AM 41.7983 -87.6828 15° North 161 185 1,400 -290 Descending Chicago Center
Mon 11:00:46 AM 41.8103 -87.7350 287° West 155 178 1,100 -290 Descending Chicago Center
Mon 11:02:00 AM 41.7833 -87.7500 20° North  Level FlightAware Approximate

Login

Don't have an account? Register now (free) for customized features, flight alerts, and more!